sensor_id;sensor_type;location;lat;lon;timestamp;P1;durP1;ratioP1;P2;durP2;ratioP2
22007;SDS011;11168;56.976;24.168;2024-02-23T00:02:27;30.33;;;18.35;;
22007;SDS011;11168;56.976;24.168;2024-02-23T00:04:54;29.90;;;18.20;;
22007;SDS011;11168;56.976;24.168;2024-02-23T00:07:21;29.30;;;17.17;;
22007;SDS011;11168;56.976;24.168;2024-02-23T00:09:48;31.67;;;18.25;;
22007;SDS011;11168;56.976;24.168;2024-02-23T00:12:20;29.15;;;17.67;;
22007;SDS011;11168;56.976;24.168;2024-02-23T00:14:47;29.52;;;17.52;;
22007;SDS011;11168;56.976;24.168;2024-02-23T00:17:15;30.27;;;18.88;;
22007;SDS011;11168;56.976;24.168;2024-02-23T00:19:45;27.67;;;18.42;;
22007;SDS011;11168;56.976;24.168;2024-02-23T00:22:13;30.17;;;18.20;;
22007;SDS011;11168;56.976;24.168;2024-02-23T00:24:41;29.67;;;18.63;;
22007;SDS011;11168;56.976;24.168;2024-02-23T00:27:08;30.83;;;18.75;;
22007;SDS011;11168;56.976;24.168;2024-02-23T00:29:36;29.63;;;17.98;;
22007;SDS011;11168;56.976;24.168;2024-02-23T00:32:05;31.88;;;20.30;;
22007;SDS011;11168;56.976;24.168;2024-02-23T00:34:34;31.25;;;18.70;;
22007;SDS011;11168;56.976;24.168;2024-02-23T00:37:02;30.35;;;18.73;;
22007;SDS011;11168;56.976;24.168;2024-02-23T00:39:29;33.88;;;19.73;;
22007;SDS011;11168;56.976;24.168;2024-02-23T00:41:58;31.52;;;20.55;;
22007;SDS011;11168;56.976;24.168;2024-02-23T00:44:26;30.05;;;19.30;;
22007;SDS011;11168;56.976;24.168;2024-02-23T00:46:55;32.05;;;19.20;;
22007;SDS011;11168;56.976;24.168;2024-02-23T00:49:26;33.97;;;19.83;;
22007;SDS011;11168;56.976;24.168;2024-02-23T00:51:53;27.92;;;19.40;;
22007;SDS011;11168;56.976;24.168;2024-02-23T00:54:22;34.53;;;20.75;;
22007;SDS011;11168;56.976;24.168;2024-02-23T00:56:49;28.88;;;19.95;;
22007;SDS011;11168;56.976;24.168;2024-02-23T00:59:19;30.00;;;19.90;;
22007;SDS011;11168;56.976;24.168;2024-02-23T01:01:47;31.58;;;19.08;;
22007;SDS011;11168;56.976;24.168;2024-02-23T01:04:14;29.48;;;18.55;;
22007;SDS011;11168;56.976;24.168;2024-02-23T01:06:41;29.02;;;19.25;;
22007;SDS011;11168;56.976;24.168;2024-02-23T01:09:08;33.25;;;19.63;;
22007;SDS011;11168;56.976;24.168;2024-02-23T01:11:36;30.85;;;18.58;;
22007;SDS011;11168;56.976;24.168;2024-02-23T01:14:03;31.77;;;19.50;;
22007;SDS011;11168;56.976;24.168;2024-02-23T01:16:30;29.48;;;19.20;;
22007;SDS011;11168;56.976;24.168;2024-02-23T01:18:58;29.85;;;20.08;;
22007;SDS011;11168;56.976;24.168;2024-02-23T01:21:27;29.77;;;19.60;;
22007;SDS011;11168;56.976;24.168;2024-02-23T01:23:54;28.48;;;18.52;;
22007;SDS011;11168;56.976;24.168;2024-02-23T01:26:21;30.48;;;19.55;;
22007;SDS011;11168;56.976;24.168;2024-02-23T01:28:50;31.30;;;18.60;;
22007;SDS011;11168;56.976;24.168;2024-02-23T01:31:17;26.05;;;18.70;;
22007;SDS011;11168;56.976;24.168;2024-02-23T01:33:44;31.38;;;19.17;;
22007;SDS011;11168;56.976;24.168;2024-02-23T01:36:12;29.73;;;18.70;;
22007;SDS011;11168;56.976;24.168;2024-02-23T01:38:41;26.83;;;18.63;;
22007;SDS011;11168;56.976;24.168;2024-02-23T01:41:09;26.27;;;17.67;;
22007;SDS011;11168;56.976;24.168;2024-02-23T01:43:38;26.70;;;17.27;;
22007;SDS011;11168;56.976;24.168;2024-02-23T01:46:08;25.85;;;18.15;;
22007;SDS011;11168;56.976;24.168;2024-02-23T01:48:36;25.92;;;17.30;;
22007;SDS011;11168;56.976;24.168;2024-02-23T01:51:03;26.08;;;17.92;;
22007;SDS011;11168;56.976;24.168;2024-02-23T01:53:30;24.27;;;17.90;;
22007;SDS011;11168;56.976;24.168;2024-02-23T01:55:58;25.17;;;18.05;;
22007;SDS011;11168;56.976;24.168;2024-02-23T01:58:27;24.52;;;15.88;;
22007;SDS011;11168;56.976;24.168;2024-02-23T02:00:57;25.73;;;17.70;;
22007;SDS011;11168;56.976;24.168;2024-02-23T02:03:24;26.70;;;17.13;;
22007;SDS011;11168;56.976;24.168;2024-02-23T02:05:56;23.40;;;15.68;;
22007;SDS011;11168;56.976;24.168;2024-02-23T02:08:26;26.30;;;16.95;;
22007;SDS011;11168;56.976;24.168;2024-02-23T02:10:54;25.58;;;16.85;;
22007;SDS011;11168;56.976;24.168;2024-02-23T02:13:21;24.92;;;16.42;;
22007;SDS011;11168;56.976;24.168;2024-02-23T02:15:49;23.45;;;16.02;;
22007;SDS011;11168;56.976;24.168;2024-02-23T02:18:17;27.48;;;17.52;;
22007;SDS011;11168;56.976;24.168;2024-02-23T02:20:53;26.23;;;17.00;;
22007;SDS011;11168;56.976;24.168;2024-02-23T02:23:23;25.60;;;16.10;;
22007;SDS011;11168;56.976;24.168;2024-02-23T02:25:56;23.60;;;16.52;;
22007;SDS011;11168;56.976;24.168;2024-02-23T02:28:25;24.85;;;16.95;;
22007;SDS011;11168;56.976;24.168;2024-02-23T02:30:52;24.17;;;15.88;;
22007;SDS011;11168;56.976;24.168;2024-02-23T02:33:20;25.25;;;15.82;;
22007;SDS011;11168;56.976;24.168;2024-02-23T02:35:47;24.13;;;15.23;;
22007;SDS011;11168;56.976;24.168;2024-02-23T02:38:16;22.13;;;15.52;;
22007;SDS011;11168;56.976;24.168;2024-02-23T02:40:43;19.98;;;14.23;;
22007;SDS011;11168;56.976;24.168;2024-02-23T02:43:11;22.65;;;14.57;;
22007;SDS011;11168;56.976;24.168;2024-02-23T02:45:39;20.23;;;13.82;;
22007;SDS011;11168;56.976;24.168;2024-02-23T02:48:06;21.30;;;14.32;;
22007;SDS011;11168;56.976;24.168;2024-02-23T02:50:36;21.10;;;14.63;;
22007;SDS011;11168;56.976;24.168;2024-02-23T02:53:06;24.33;;;15.32;;
22007;SDS011;11168;56.976;24.168;2024-02-23T02:55:33;24.70;;;14.60;;
22007;SDS011;11168;56.976;24.168;2024-02-23T02:58:00;25.65;;;15.00;;
22007;SDS011;11168;56.976;24.168;2024-02-23T03:00:28;22.02;;;14.18;;
22007;SDS011;11168;56.976;24.168;2024-02-23T03:03:00;20.38;;;14.27;;
22007;SDS011;11168;56.976;24.168;2024-02-23T03:05:27;20.13;;;14.68;;
22007;SDS011;11168;56.976;24.168;2024-02-23T03:07:54;20.30;;;14.55;;
22007;SDS011;11168;56.976;24.168;2024-02-23T03:10:21;23.17;;;14.13;;
22007;SDS011;11168;56.976;24.168;2024-02-23T03:12:48;20.13;;;13.57;;
22007;SDS011;11168;56.976;24.168;2024-02-23T03:15:16;21.27;;;13.63;;
22007;SDS011;11168;56.976;24.168;2024-02-23T03:17:43;17.83;;;13.55;;
22007;SDS011;11168;56.976;24.168;2024-02-23T03:20:11;18.13;;;12.95;;
22007;SDS011;11168;56.976;24.168;2024-02-23T03:22:39;20.45;;;14.30;;
22007;SDS011;11168;56.976;24.168;2024-02-23T03:25:06;18.73;;;13.40;;
22007;SDS011;11168;56.976;24.168;2024-02-23T03:27:36;22.73;;;13.68;;
22007;SDS011;11168;56.976;24.168;2024-02-23T03:30:05;19.45;;;14.23;;
22007;SDS011;11168;56.976;24.168;2024-02-23T03:32:34;21.20;;;13.77;;
22007;SDS011;11168;56.976;24.168;2024-02-23T03:35:06;23.65;;;14.70;;
22007;SDS011;11168;56.976;24.168;2024-02-23T03:37:35;21.73;;;13.85;;
22007;SDS011;11168;56.976;24.168;2024-02-23T03:40:04;27.40;;;14.27;;
22007;SDS011;11168;56.976;24.168;2024-02-23T03:42:32;24.05;;;14.40;;
22007;SDS011;11168;56.976;24.168;2024-02-23T03:44:59;22.08;;;14.80;;
22007;SDS011;11168;56.976;24.168;2024-02-23T03:47:29;20.13;;;14.55;;
22007;SDS011;11168;56.976;24.168;2024-02-23T03:49:56;19.95;;;14.25;;
22007;SDS011;11168;56.976;24.168;2024-02-23T03:52:23;20.38;;;14.35;;
22007;SDS011;11168;56.976;24.168;2024-02-23T03:54:51;20.60;;;14.48;;
22007;SDS011;11168;56.976;24.168;2024-02-23T03:57:18;20.70;;;13.75;;
22007;SDS011;11168;56.976;24.168;2024-02-23T03:59:52;18.30;;;13.57;;
22007;SDS011;11168;56.976;24.168;2024-02-23T04:02:20;20.60;;;13.80;;
22007;SDS011;11168;56.976;24.168;2024-02-23T04:04:48;19.92;;;13.60;;
22007;SDS011;11168;56.976;24.168;2024-02-23T04:07:15;20.02;;;13.68;;
22007;SDS011;11168;56.976;24.168;2024-02-23T04:09:43;19.60;;;13.98;;
22007;SDS011;11168;56.976;24.168;2024-02-23T04:12:10;17.85;;;13.02;;
22007;SDS011;11168;56.976;24.168;2024-02-23T04:14:38;20.98;;;13.95;;
22007;SDS011;11168;56.976;24.168;2024-02-23T04:17:07;22.45;;;13.52;;
22007;SDS011;11168;56.976;24.168;2024-02-23T04:19:34;20.00;;;13.05;;
22007;SDS011;11168;56.976;24.168;2024-02-23T04:22:02;19.33;;;13.70;;
22007;SDS011;11168;56.976;24.168;2024-02-23T04:24:29;18.90;;;13.68;;
22007;SDS011;11168;56.976;24.168;2024-02-23T04:26:56;19.90;;;12.57;;
22007;SDS011;11168;56.976;24.168;2024-02-23T04:29:23;19.95;;;13.30;;
22007;SDS011;11168;56.976;24.168;2024-02-23T04:31:50;19.13;;;12.55;;
22007;SDS011;11168;56.976;24.168;2024-02-23T04:34:17;19.63;;;13.63;;
22007;SDS011;11168;56.976;24.168;2024-02-23T04:36:46;18.30;;;12.98;;
22007;SDS011;11168;56.976;24.168;2024-02-23T04:39:13;21.85;;;13.25;;
22007;SDS011;11168;56.976;24.168;2024-02-23T04:41:40;19.13;;;12.98;;
22007;SDS011;11168;56.976;24.168;2024-02-23T04:44:07;18.05;;;12.43;;
22007;SDS011;11168;56.976;24.168;2024-02-23T04:46:36;18.13;;;12.65;;
22007;SDS011;11168;56.976;24.168;2024-02-23T04:49:03;22.13;;;12.93;;
22007;SDS011;11168;56.976;24.168;2024-02-23T04:51:30;18.48;;;12.48;;
22007;SDS011;11168;56.976;24.168;2024-02-23T04:53:58;18.98;;;12.35;;
22007;SDS011;11168;56.976;24.168;2024-02-23T04:56:25;19.35;;;13.23;;
22007;SDS011;11168;56.976;24.168;2024-02-23T04:58:52;17.15;;;12.00;;
22007;SDS011;11168;56.976;24.168;2024-02-23T05:01:19;18.20;;;12.93;;
22007;SDS011;11168;56.976;24.168;2024-02-23T05:03:46;17.85;;;11.63;;
22007;SDS011;11168;56.976;24.168;2024-02-23T05:06:13;16.42;;;11.50;;
22007;SDS011;11168;56.976;24.168;2024-02-23T05:08:43;18.35;;;11.82;;
22007;SDS011;11168;56.976;24.168;2024-02-23T05:11:11;19.48;;;12.25;;
22007;SDS011;11168;56.976;24.168;2024-02-23T05:13:42;15.80;;;11.73;;
22007;SDS011;11168;56.976;24.168;2024-02-23T05:16:09;17.65;;;11.52;;
22007;SDS011;11168;56.976;24.168;2024-02-23T05:18:36;17.42;;;11.30;;
22007;SDS011;11168;56.976;24.168;2024-02-23T05:21:03;18.17;;;11.60;;
22007;SDS011;11168;56.976;24.168;2024-02-23T05:23:31;20.10;;;12.23;;
22007;SDS011;11168;56.976;24.168;2024-02-23T05:25:58;16.05;;;11.55;;
22007;SDS011;11168;56.976;24.168;2024-02-23T05:28:33;17.17;;;11.13;;
22007;SDS011;11168;56.976;24.168;2024-02-23T05:31:02;18.52;;;12.65;;
22007;SDS011;11168;56.976;24.168;2024-02-23T05:33:30;19.85;;;12.68;;
22007;SDS011;11168;56.976;24.168;2024-02-23T05:35:57;18.10;;;11.80;;
22007;SDS011;11168;56.976;24.168;2024-02-23T05:38:26;16.90;;;11.57;;
22007;SDS011;11168;56.976;24.168;2024-02-23T05:40:54;16.02;;;12.05;;
22007;SDS011;11168;56.976;24.168;2024-02-23T05:43:22;16.90;;;11.80;;
22007;SDS011;11168;56.976;24.168;2024-02-23T05:45:49;17.35;;;12.10;;
22007;SDS011;11168;56.976;24.168;2024-02-23T05:48:16;16.58;;;11.77;;
22007;SDS011;11168;56.976;24.168;2024-02-23T05:50:45;20.88;;;11.75;;
22007;SDS011;11168;56.976;24.168;2024-02-23T05:53:13;17.95;;;11.52;;
22007;SDS011;11168;56.976;24.168;2024-02-23T05:55:40;17.17;;;10.73;;
22007;SDS011;11168;56.976;24.168;2024-02-23T05:58:07;16.77;;;11.45;;
22007;SDS011;11168;56.976;24.168;2024-02-23T06:00:35;17.20;;;12.05;;
22007;SDS011;11168;56.976;24.168;2024-02-23T06:03:02;14.80;;;11.15;;
22007;SDS011;11168;56.976;24.168;2024-02-23T06:05:30;16.88;;;10.77;;
22007;SDS011;11168;56.976;24.168;2024-02-23T06:07:59;18.05;;;11.40;;
22007;SDS011;11168;56.976;24.168;2024-02-23T06:10:28;18.55;;;11.60;;
22007;SDS011;11168;56.976;24.168;2024-02-23T06:12:55;16.77;;;11.23;;
22007;SDS011;11168;56.976;24.168;2024-02-23T06:15:24;18.38;;;12.95;;
22007;SDS011;11168;56.976;24.168;2024-02-23T06:17:51;19.88;;;11.73;;
22007;SDS011;11168;56.976;24.168;2024-02-23T06:20:19;16.05;;;12.02;;
22007;SDS011;11168;56.976;24.168;2024-02-23T06:22:46;15.75;;;11.35;;
22007;SDS011;11168;56.976;24.168;2024-02-23T06:25:19;15.68;;;11.15;;
22007;SDS011;11168;56.976;24.168;2024-02-23T06:27:46;19.80;;;11.88;;
22007;SDS011;11168;56.976;24.168;2024-02-23T06:30:15;14.82;;;11.15;;
22007;SDS011;11168;56.976;24.168;2024-02-23T06:32:42;16.08;;;11.00;;
22007;SDS011;11168;56.976;24.168;2024-02-23T06:35:12;18.38;;;10.52;;
22007;SDS011;11168;56.976;24.168;2024-02-23T06:37:40;18.52;;;11.38;;
22007;SDS011;11168;56.976;24.168;2024-02-23T06:40:07;15.70;;;10.68;;
22007;SDS011;11168;56.976;24.168;2024-02-23T06:42:36;18.60;;;11.00;;
22007;SDS011;11168;56.976;24.168;2024-02-23T06:45:03;17.75;;;11.18;;
22007;SDS011;11168;56.976;24.168;2024-02-23T06:47:31;15.75;;;10.63;;
22007;SDS011;11168;56.976;24.168;2024-02-23T06:49:59;17.15;;;10.90;;
22007;SDS011;11168;56.976;24.168;2024-02-23T06:52:26;16.63;;;10.73;;
22007;SDS011;11168;56.976;24.168;2024-02-23T06:54:54;15.40;;;11.18;;
22007;SDS011;11168;56.976;24.168;2024-02-23T06:57:21;17.45;;;10.90;;
22007;SDS011;11168;56.976;24.168;2024-02-23T06:59:52;16.20;;;10.70;;
22007;SDS011;11168;56.976;24.168;2024-02-23T07:02:20;16.88;;;10.20;;
22007;SDS011;11168;56.976;24.168;2024-02-23T07:04:47;17.90;;;10.82;;
22007;SDS011;11168;56.976;24.168;2024-02-23T07:07:14;16.55;;;10.20;;
22007;SDS011;11168;56.976;24.168;2024-02-23T07:09:42;17.23;;;10.57;;
22007;SDS011;11168;56.976;24.168;2024-02-23T07:12:09;18.15;;;10.13;;
22007;SDS011;11168;56.976;24.168;2024-02-23T07:14:38;15.80;;;10.85;;
22007;SDS011;11168;56.976;24.168;2024-02-23T07:17:05;18.83;;;10.63;;
22007;SDS011;11168;56.976;24.168;2024-02-23T07:19:32;17.48;;;10.63;;
22007;SDS011;11168;56.976;24.168;2024-02-23T07:21:59;17.83;;;10.40;;
22007;SDS011;11168;56.976;24.168;2024-02-23T07:24:26;15.95;;;9.93;;
22007;SDS011;11168;56.976;24.168;2024-02-23T07:26:53;14.90;;;10.40;;
22007;SDS011;11168;56.976;24.168;2024-02-23T07:29:20;18.45;;;10.55;;
22007;SDS011;11168;56.976;24.168;2024-02-23T07:31:48;14.77;;;10.70;;
22007;SDS011;11168;56.976;24.168;2024-02-23T07:34:15;18.65;;;10.63;;
22007;SDS011;11168;56.976;24.168;2024-02-23T07:36:42;16.63;;;10.70;;
22007;SDS011;11168;56.976;24.168;2024-02-23T07:39:10;17.83;;;10.43;;
22007;SDS011;11168;56.976;24.168;2024-02-23T07:41:38;15.20;;;10.20;;
22007;SDS011;11168;56.976;24.168;2024-02-23T07:44:05;14.93;;;10.93;;
22007;SDS011;11168;56.976;24.168;2024-02-23T07:46:39;15.35;;;10.10;;
22007;SDS011;11168;56.976;24.168;2024-02-23T07:49:12;19.40;;;10.52;;
22007;SDS011;11168;56.976;24.168;2024-02-23T07:51:43;16.92;;;10.55;;
22007;SDS011;11168;56.976;24.168;2024-02-23T07:54:11;18.20;;;11.02;;
22007;SDS011;11168;56.976;24.168;2024-02-23T07:56:39;16.98;;;10.63;;
22007;SDS011;11168;56.976;24.168;2024-02-23T07:59:07;19.77;;;10.68;;
22007;SDS011;11168;56.976;24.168;2024-02-23T08:01:35;17.15;;;10.48;;
22007;SDS011;11168;56.976;24.168;2024-02-23T08:04:03;15.80;;;10.25;;
22007;SDS011;11168;56.976;24.168;2024-02-23T08:06:31;16.60;;;10.10;;
22007;SDS011;11168;56.976;24.168;2024-02-23T08:08:59;14.68;;;9.98;;
22007;SDS011;11168;56.976;24.168;2024-02-23T08:11:26;14.68;;;9.93;;
22007;SDS011;11168;56.976;24.168;2024-02-23T08:14:02;14.15;;;9.77;;
22007;SDS011;11168;56.976;24.168;2024-02-23T08:16:30;16.40;;;10.65;;
22007;SDS011;11168;56.976;24.168;2024-02-23T08:18:57;15.23;;;9.88;;
22007;SDS011;11168;56.976;24.168;2024-02-23T08:21:26;15.00;;;10.57;;
22007;SDS011;11168;56.976;24.168;2024-02-23T08:24:07;16.83;;;10.75;;
22007;SDS011;11168;56.976;24.168;2024-02-23T08:26:34;14.55;;;10.57;;
22007;SDS011;11168;56.976;24.168;2024-02-23T08:29:01;15.52;;;10.50;;
22007;SDS011;11168;56.976;24.168;2024-02-23T08:31:29;13.93;;;10.30;;
22007;SDS011;11168;56.976;24.168;2024-02-23T08:33:56;14.73;;;10.02;;
22007;SDS011;11168;56.976;24.168;2024-02-23T08:36:24;13.07;;;9.48;;
22007;SDS011;11168;56.976;24.168;2024-02-23T08:38:52;17.13;;;10.43;;
22007;SDS011;11168;56.976;24.168;2024-02-23T08:41:21;13.02;;;9.32;;
22007;SDS011;11168;56.976;24.168;2024-02-23T08:43:48;16.00;;;10.27;;
22007;SDS011;11168;56.976;24.168;2024-02-23T08:46:17;16.52;;;10.93;;
22007;SDS011;11168;56.976;24.168;2024-02-23T08:48:45;15.48;;;10.45;;
22007;SDS011;11168;56.976;24.168;2024-02-23T08:51:13;18.23;;;10.98;;
22007;SDS011;11168;56.976;24.168;2024-02-23T08:53:40;15.27;;;10.00;;
22007;SDS011;11168;56.976;24.168;2024-02-23T08:56:08;17.05;;;10.60;;
22007;SDS011;11168;56.976;24.168;2024-02-23T08:58:38;16.05;;;10.00;;
22007;SDS011;11168;56.976;24.168;2024-02-23T09:01:05;14.30;;;10.35;;
22007;SDS011;11168;56.976;24.168;2024-02-23T09:03:34;15.77;;;10.02;;
22007;SDS011;11168;56.976;24.168;2024-02-23T09:06:01;16.50;;;9.90;;
22007;SDS011;11168;56.976;24.168;2024-02-23T09:08:28;12.40;;;9.52;;
22007;SDS011;11168;56.976;24.168;2024-02-23T09:10:55;14.98;;;10.88;;
22007;SDS011;11168;56.976;24.168;2024-02-23T09:13:22;13.65;;;9.95;;
22007;SDS011;11168;56.976;24.168;2024-02-23T09:15:50;16.05;;;10.32;;
22007;SDS011;11168;56.976;24.168;2024-02-23T09:18:17;18.20;;;10.45;;
22007;SDS011;11168;56.976;24.168;2024-02-23T09:20:44;14.07;;;10.50;;
22007;SDS011;11168;56.976;24.168;2024-02-23T09:23:12;16.08;;;9.90;;
22007;SDS011;11168;56.976;24.168;2024-02-23T09:25:40;14.07;;;9.90;;
22007;SDS011;11168;56.976;24.168;2024-02-23T09:28:09;13.27;;;9.32;;
22007;SDS011;11168;56.976;24.168;2024-02-23T09:30:38;14.07;;;9.82;;
22007;SDS011;11168;56.976;24.168;2024-02-23T09:33:05;13.88;;;9.95;;
22007;SDS011;11168;56.976;24.168;2024-02-23T09:35:35;13.32;;;10.05;;
22007;SDS011;11168;56.976;24.168;2024-02-23T09:38:02;14.68;;;9.80;;
22007;SDS011;11168;56.976;24.168;2024-02-23T09:40:29;14.60;;;9.80;;
22007;SDS011;11168;56.976;24.168;2024-02-23T09:42:58;15.73;;;10.45;;
22007;SDS011;11168;56.976;24.168;2024-02-23T09:45:25;15.32;;;10.07;;
22007;SDS011;11168;56.976;24.168;2024-02-23T09:47:53;14.77;;;9.65;;
22007;SDS011;11168;56.976;24.168;2024-02-23T09:50:22;14.32;;;9.60;;
22007;SDS011;11168;56.976;24.168;2024-02-23T09:52:52;14.32;;;9.48;;
22007;SDS011;11168;56.976;24.168;2024-02-23T09:55:21;13.85;;;9.82;;
22007;SDS011;11168;56.976;24.168;2024-02-23T09:57:55;13.68;;;9.98;;
22007;SDS011;11168;56.976;24.168;2024-02-23T10:00:27;15.10;;;10.63;;
22007;SDS011;11168;56.976;24.168;2024-02-23T10:02:57;15.63;;;10.55;;
22007;SDS011;11168;56.976;24.168;2024-02-23T10:05:30;16.60;;;10.88;;
22007;SDS011;11168;56.976;24.168;2024-02-23T10:08:05;14.30;;;10.23;;
22007;SDS011;11168;56.976;24.168;2024-02-23T10:10:33;14.27;;;9.82;;
22007;SDS011;11168;56.976;24.168;2024-02-23T10:13:00;13.27;;;10.18;;
22007;SDS011;11168;56.976;24.168;2024-02-23T10:15:31;14.65;;;9.98;;
22007;SDS011;11168;56.976;24.168;2024-02-23T10:17:58;18.63;;;11.23;;
22007;SDS011;11168;56.976;24.168;2024-02-23T10:20:26;15.05;;;10.95;;
22007;SDS011;11168;56.976;24.168;2024-02-23T10:22:53;14.85;;;10.55;;
22007;SDS011;11168;56.976;24.168;2024-02-23T10:25:20;15.98;;;11.02;;
22007;SDS011;11168;56.976;24.168;2024-02-23T10:27:48;17.48;;;11.48;;
22007;SDS011;11168;56.976;24.168;2024-02-23T10:30:17;15.60;;;11.25;;
22007;SDS011;11168;56.976;24.168;2024-02-23T10:32:45;19.33;;;11.57;;
22007;SDS011;11168;56.976;24.168;2024-02-23T10:35:13;15.95;;;11.77;;
22007;SDS011;11168;56.976;24.168;2024-02-23T10:37:44;16.95;;;11.75;;
22007;SDS011;11168;56.976;24.168;2024-02-23T10:40:20;16.27;;;11.90;;
22007;SDS011;11168;56.976;24.168;2024-02-23T10:45:43;17.38;;;11.65;;
22007;SDS011;11168;56.976;24.168;2024-02-23T10:48:11;16.45;;;11.73;;
22007;SDS011;11168;56.976;24.168;2024-02-23T10:50:41;18.45;;;11.90;;
22007;SDS011;11168;56.976;24.168;2024-02-23T10:53:10;17.40;;;12.50;;
22007;SDS011;11168;56.976;24.168;2024-02-23T10:55:40;17.92;;;12.60;;
22007;SDS011;11168;56.976;24.168;2024-02-23T10:58:10;17.98;;;12.13;;
22007;SDS011;11168;56.976;24.168;2024-02-23T11:00:39;18.42;;;12.70;;
22007;SDS011;11168;56.976;24.168;2024-02-23T11:03:06;16.92;;;12.27;;
22007;SDS011;11168;56.976;24.168;2024-02-23T11:05:35;17.20;;;11.68;;
22007;SDS011;11168;56.976;24.168;2024-02-23T11:08:05;19.48;;;12.13;;
22007;SDS011;11168;56.976;24.168;2024-02-23T11:10:42;18.13;;;12.35;;
22007;SDS011;11168;56.976;24.168;2024-02-23T11:13:10;19.15;;;13.10;;
22007;SDS011;11168;56.976;24.168;2024-02-23T11:15:41;19.15;;;13.63;;
22007;SDS011;11168;56.976;24.168;2024-02-23T11:18:21;19.80;;;13.43;;
22007;SDS011;11168;56.976;24.168;2024-02-23T11:21:09;17.55;;;13.43;;
22007;SDS011;11168;56.976;24.168;2024-02-23T11:23:45;23.10;;;13.52;;
22007;SDS011;11168;56.976;24.168;2024-02-23T11:26:15;19.33;;;13.35;;
22007;SDS011;11168;56.976;24.168;2024-02-23T11:28:47;20.00;;;13.35;;
22007;SDS011;11168;56.976;24.168;2024-02-23T11:31:19;18.67;;;12.88;;
22007;SDS011;11168;56.976;24.168;2024-02-23T11:33:48;18.90;;;13.13;;
22007;SDS011;11168;56.976;24.168;2024-02-23T11:36:23;20.85;;;13.85;;
22007;SDS011;11168;56.976;24.168;2024-02-23T11:38:58;18.60;;;13.07;;
22007;SDS011;11168;56.976;24.168;2024-02-23T11:41:27;18.25;;;12.65;;
22007;SDS011;11168;56.976;24.168;2024-02-23T11:43:55;20.05;;;14.10;;
22007;SDS011;11168;56.976;24.168;2024-02-23T11:46:26;19.80;;;14.05;;
22007;SDS011;11168;56.976;24.168;2024-02-23T11:48:53;19.20;;;13.40;;
22007;SDS011;11168;56.976;24.168;2024-02-23T11:51:21;18.98;;;14.05;;
22007;SDS011;11168;56.976;24.168;2024-02-23T11:53:49;19.55;;;14.13;;
22007;SDS011;11168;56.976;24.168;2024-02-23T11:56:19;20.17;;;15.55;;
22007;SDS011;11168;56.976;24.168;2024-02-23T11:58:47;21.13;;;15.23;;
22007;SDS011;11168;56.976;24.168;2024-02-23T12:01:14;20.65;;;15.45;;
22007;SDS011;11168;56.976;24.168;2024-02-23T12:03:41;22.00;;;15.95;;
22007;SDS011;11168;56.976;24.168;2024-02-23T12:06:10;20.10;;;14.70;;
22007;SDS011;11168;56.976;24.168;2024-02-23T12:08:40;23.08;;;16.25;;
22007;SDS011;11168;56.976;24.168;2024-02-23T12:11:11;23.30;;;15.52;;
22007;SDS011;11168;56.976;24.168;2024-02-23T12:13:41;24.90;;;16.58;;
22007;SDS011;11168;56.976;24.168;2024-02-23T12:16:11;24.63;;;15.05;;
22007;SDS011;11168;56.976;24.168;2024-02-23T12:18:38;22.75;;;15.73;;
22007;SDS011;11168;56.976;24.168;2024-02-23T12:21:06;19.90;;;15.18;;
22007;SDS011;11168;56.976;24.168;2024-02-23T12:23:52;20.33;;;15.13;;
22007;SDS011;11168;56.976;24.168;2024-02-23T12:26:25;24.42;;;15.52;;
22007;SDS011;11168;56.976;24.168;2024-02-23T12:28:52;23.58;;;17.30;;
22007;SDS011;11168;56.976;24.168;2024-02-23T12:31:26;23.88;;;16.27;;
22007;SDS011;11168;56.976;24.168;2024-02-23T12:33:56;24.10;;;16.35;;
22007;SDS011;11168;56.976;24.168;2024-02-23T12:36:24;24.05;;;16.77;;
22007;SDS011;11168;56.976;24.168;2024-02-23T12:38:51;26.35;;;18.10;;
22007;SDS011;11168;56.976;24.168;2024-02-23T12:41:18;24.02;;;17.58;;
22007;SDS011;11168;56.976;24.168;2024-02-23T12:43:45;23.83;;;17.55;;
22007;SDS011;11168;56.976;24.168;2024-02-23T12:46:15;22.35;;;16.98;;
22007;SDS011;11168;56.976;24.168;2024-02-23T12:48:42;23.58;;;17.75;;
22007;SDS011;11168;56.976;24.168;2024-02-23T12:51:10;25.10;;;17.80;;
22007;SDS011;11168;56.976;24.168;2024-02-23T12:53:39;24.88;;;18.48;;
22007;SDS011;11168;56.976;24.168;2024-02-23T12:56:09;28.90;;;19.35;;
22007;SDS011;11168;56.976;24.168;2024-02-23T12:58:39;27.77;;;19.13;;
22007;SDS011;11168;56.976;24.168;2024-02-23T13:01:09;27.98;;;20.08;;
22007;SDS011;11168;56.976;24.168;2024-02-23T13:03:37;29.83;;;19.65;;
22007;SDS011;11168;56.976;24.168;2024-02-23T13:08:44;27.40;;;19.30;;
22007;SDS011;11168;56.976;24.168;2024-02-23T13:11:13;26.70;;;19.05;;
22007;SDS011;11168;56.976;24.168;2024-02-23T13:13:40;26.98;;;19.88;;
22007;SDS011;11168;56.976;24.168;2024-02-23T13:16:09;28.52;;;19.55;;
22007;SDS011;11168;56.976;24.168;2024-02-23T13:18:37;28.40;;;19.90;;
22007;SDS011;11168;56.976;24.168;2024-02-23T13:21:04;27.38;;;20.17;;
22007;SDS011;11168;56.976;24.168;2024-02-23T13:23:31;28.48;;;20.23;;
22007;SDS011;11168;56.976;24.168;2024-02-23T13:25:58;30.10;;;20.25;;
22007;SDS011;11168;56.976;24.168;2024-02-23T13:28:29;27.77;;;20.13;;
22007;SDS011;11168;56.976;24.168;2024-02-23T13:30:56;24.67;;;19.30;;
22007;SDS011;11168;56.976;24.168;2024-02-23T13:33:23;28.55;;;20.45;;
22007;SDS011;11168;56.976;24.168;2024-02-23T13:35:52;26.67;;;20.10;;
22007;SDS011;11168;56.976;24.168;2024-02-23T13:38:19;27.42;;;20.55;;
22007;SDS011;11168;56.976;24.168;2024-02-23T13:40:47;31.17;;;21.35;;
22007;SDS011;11168;56.976;24.168;2024-02-23T13:43:14;28.23;;;19.58;;
22007;SDS011;11168;56.976;24.168;2024-02-23T13:45:51;29.75;;;20.88;;
22007;SDS011;11168;56.976;24.168;2024-02-23T13:48:19;28.08;;;21.73;;
22007;SDS011;11168;56.976;24.168;2024-02-23T13:50:46;27.67;;;20.40;;
22007;SDS011;11168;56.976;24.168;2024-02-23T13:53:14;36.97;;;22.50;;
22007;SDS011;11168;56.976;24.168;2024-02-23T13:55:42;29.98;;;21.48;;
22007;SDS011;11168;56.976;24.168;2024-02-23T13:58:10;32.22;;;20.15;;
22007;SDS011;11168;56.976;24.168;2024-02-23T14:00:38;50.67;;;36.22;;
22007;SDS011;11168;56.976;24.168;2024-02-23T14:03:05;27.88;;;20.80;;
22007;SDS011;11168;56.976;24.168;2024-02-23T14:05:33;27.10;;;21.08;;
22007;SDS011;11168;56.976;24.168;2024-02-23T14:08:00;26.35;;;20.35;;
22007;SDS011;11168;56.976;24.168;2024-02-23T14:10:30;25.90;;;19.88;;
22007;SDS011;11168;56.976;24.168;2024-02-23T14:12:57;29.35;;;19.98;;
22007;SDS011;11168;56.976;24.168;2024-02-23T14:15:25;30.77;;;19.98;;
22007;SDS011;11168;56.976;24.168;2024-02-23T14:17:53;30.60;;;20.02;;
22007;SDS011;11168;56.976;24.168;2024-02-23T14:20:20;27.17;;;20.65;;
22007;SDS011;11168;56.976;24.168;2024-02-23T14:22:47;30.35;;;21.35;;